sensor_id;sensor_type;location;lat;lon;timestamp;temperature;humidity
33994;DHT22;20673;48.980;8.138;2024-02-15T00:01:02;9.30;99.90
33994;DHT22;20673;48.980;8.138;2024-02-15T00:03:30;9.20;99.90
33994;DHT22;20673;48.980;8.138;2024-02-15T00:05:57;9.20;99.90
33994;DHT22;20673;48.980;8.138;2024-02-15T00:08:24;9.10;99.90
33994;DHT22;20673;48.980;8.138;2024-02-15T00:10:52;9.00;99.90
33994;DHT22;20673;48.980;8.138;2024-02-15T00:13:19;8.90;99.90
33994;DHT22;20673;48.980;8.138;2024-02-15T00:15:45;8.90;99.90
33994;DHT22;20673;48.980;8.138;2024-02-15T00:18:13;8.80;99.90
33994;DHT22;20673;48.980;8.138;2024-02-15T00:20:40;8.80;99.90
33994;DHT22;20673;48.980;8.138;2024-02-15T00:23:06;8.80;99.90
33994;DHT22;20673;48.980;8.138;2024-02-15T00:25:33;8.70;99.90
33994;DHT22;20673;48.980;8.138;2024-02-15T00:27:59;8.70;99.90
33994;DHT22;20673;48.980;8.138;2024-02-15T00:30:26;8.60;99.90
33994;DHT22;20673;48.980;8.138;2024-02-15T00:32:53;8.60;99.90
33994;DHT22;20673;48.980;8.138;2024-02-15T00:35:19;8.60;99.90
33994;DHT22;20673;48.980;8.138;2024-02-15T00:37:45;8.70;99.90
33994;DHT22;20673;48.980;8.138;2024-02-15T00:40:12;8.60;99.90
33994;DHT22;20673;48.980;8.138;2024-02-15T00:42:39;8.50;99.90
33994;DHT22;20673;48.980;8.138;2024-02-15T00:45:05;8.50;99.90
33994;DHT22;20673;48.980;8.138;2024-02-15T00:47:33;8.40;99.90
33994;DHT22;20673;48.980;8.138;2024-02-15T00:49:59;8.50;99.90
33994;DHT22;20673;48.980;8.138;2024-02-15T00:52:25;8.50;99.90
33994;DHT22;20673;48.980;8.138;2024-02-15T00:54:51;8.50;99.90
33994;DHT22;20673;48.980;8.138;2024-02-15T00:57:18;8.50;99.90
33994;DHT22;20673;48.980;8.138;2024-02-15T00:59:44;8.50;99.90
33994;DHT22;20673;48.980;8.138;2024-02-15T01:02:10;8.50;99.90
33994;DHT22;20673;48.980;8.138;2024-02-15T01:04:36;8.60;99.90
33994;DHT22;20673;48.980;8.138;2024-02-15T01:07:02;8.60;99.90
33994;DHT22;20673;48.980;8.138;2024-02-15T01:09:29;8.60;99.90
33994;DHT22;20673;48.980;8.138;2024-02-15T01:11:55;8.70;99.90
33994;DHT22;20673;48.980;8.138;2024-02-15T01:14:21;8.70;99.90
33994;DHT22;20673;48.980;8.138;2024-02-15T01:16:48;8.60;99.90
33994;DHT22;20673;48.980;8.138;2024-02-15T01:19:14;8.60;99.90
33994;DHT22;20673;48.980;8.138;2024-02-15T01:21:40;8.70;99.90
33994;DHT22;20673;48.980;8.138;2024-02-15T01:24:06;8.70;99.90
33994;DHT22;20673;48.980;8.138;2024-02-15T01:26:33;8.70;99.90
33994;DHT22;20673;48.980;8.138;2024-02-15T01:29:00;8.70;99.90
33994;DHT22;20673;48.980;8.138;2024-02-15T01:31:26;8.70;99.90
33994;DHT22;20673;48.980;8.138;2024-02-15T01:33:52;8.70;99.90
33994;DHT22;20673;48.980;8.138;2024-02-15T01:36:18;8.80;99.90
33994;DHT22;20673;48.980;8.138;2024-02-15T01:38:44;8.80;99.90
33994;DHT22;20673;48.980;8.138;2024-02-15T01:41:11;8.80;99.90
33994;DHT22;20673;48.980;8.138;2024-02-15T01:43:37;8.80;99.90
33994;DHT22;20673;48.980;8.138;2024-02-15T01:46:09;8.80;99.90
33994;DHT22;20673;48.980;8.138;2024-02-15T01:48:37;8.80;99.90
33994;DHT22;20673;48.980;8.138;2024-02-15T01:51:06;8.80;99.90
33994;DHT22;20673;48.980;8.138;2024-02-15T01:53:33;8.80;99.90
33994;DHT22;20673;48.980;8.138;2024-02-15T01:56:00;8.90;99.90
33994;DHT22;20673;48.980;8.138;2024-02-15T01:58:27;8.90;99.90
33994;DHT22;20673;48.980;8.138;2024-02-15T02:00:56;8.90;99.90
33994;DHT22;20673;48.980;8.138;2024-02-15T02:03:23;8.90;99.90
33994;DHT22;20673;48.980;8.138;2024-02-15T02:05:49;8.90;99.90
33994;DHT22;20673;48.980;8.138;2024-02-15T02:08:16;9.00;99.90
33994;DHT22;20673;48.980;8.138;2024-02-15T02:10:43;9.00;99.90
33994;DHT22;20673;48.980;8.138;2024-02-15T02:13:11;9.00;99.90
33994;DHT22;20673;48.980;8.138;2024-02-15T02:15:38;9.00;99.90
33994;DHT22;20673;48.980;8.138;2024-02-15T02:18:05;9.20;99.90
33994;DHT22;20673;48.980;8.138;2024-02-15T02:20:36;9.20;99.90
33994;DHT22;20673;48.980;8.138;2024-02-15T02:23:13;9.20;99.90
33994;DHT22;20673;48.980;8.138;2024-02-15T02:25:42;9.20;99.90
33994;DHT22;20673;48.980;8.138;2024-02-15T02:28:10;9.20;99.90
33994;DHT22;20673;48.980;8.138;2024-02-15T02:30:37;9.20;99.90
33994;DHT22;20673;48.980;8.138;2024-02-15T02:33:05;9.20;99.90
33994;DHT22;20673;48.980;8.138;2024-02-15T02:35:33;9.20;99.90
33994;DHT22;20673;48.980;8.138;2024-02-15T02:37:59;9.30;99.90
33994;DHT22;20673;48.980;8.138;2024-02-15T02:40:25;9.40;99.90
33994;DHT22;20673;48.980;8.138;2024-02-15T02:42:53;9.40;99.90
33994;DHT22;20673;48.980;8.138;2024-02-15T02:45:26;9.40;99.90
33994;DHT22;20673;48.980;8.138;2024-02-15T02:47:53;9.50;99.90
33994;DHT22;20673;48.980;8.138;2024-02-15T02:50:21;9.50;99.90
33994;DHT22;20673;48.980;8.138;2024-02-15T02:52:48;9.60;99.90
33994;DHT22;20673;48.980;8.138;2024-02-15T02:55:15;9.60;99.90
33994;DHT22;20673;48.980;8.138;2024-02-15T02:57:41;9.60;99.90
33994;DHT22;20673;48.980;8.138;2024-02-15T03:00:09;9.70;99.90
33994;DHT22;20673;48.980;8.138;2024-02-15T03:02:43;9.70;99.90
33994;DHT22;20673;48.980;8.138;2024-02-15T03:05:10;9.80;99.90
33994;DHT22;20673;48.980;8.138;2024-02-15T03:07:39;9.90;99.90
33994;DHT22;20673;48.980;8.138;2024-02-15T03:10:10;9.90;99.90
33994;DHT22;20673;48.980;8.138;2024-02-15T03:12:38;9.90;99.90
33994;DHT22;20673;48.980;8.138;2024-02-15T03:15:06;9.90;99.90
33994;DHT22;20673;48.980;8.138;2024-02-15T03:17:42;9.90;99.90
33994;DHT22;20673;48.980;8.138;2024-02-15T03:20:11;10.00;99.90
33994;DHT22;20673;48.980;8.138;2024-02-15T03:22:40;10.00;99.90
33994;DHT22;20673;48.980;8.138;2024-02-15T03:25:07;10.10;99.90
33994;DHT22;20673;48.980;8.138;2024-02-15T03:27:35;10.20;99.90
33994;DHT22;20673;48.980;8.138;2024-02-15T03:30:05;10.30;99.90
33994;DHT22;20673;48.980;8.138;2024-02-15T03:32:32;10.30;99.90
33994;DHT22;20673;48.980;8.138;2024-02-15T03:34:58;10.20;99.90
33994;DHT22;20673;48.980;8.138;2024-02-15T03:37:26;10.30;99.90
33994;DHT22;20673;48.980;8.138;2024-02-15T03:39:53;10.30;99.90
33994;DHT22;20673;48.980;8.138;2024-02-15T03:42:19;10.30;99.90
33994;DHT22;20673;48.980;8.138;2024-02-15T03:44:45;10.30;99.90
33994;DHT22;20673;48.980;8.138;2024-02-15T03:47:11;10.40;99.90
33994;DHT22;20673;48.980;8.138;2024-02-15T03:49:39;10.30;99.90
33994;DHT22;20673;48.980;8.138;2024-02-15T03:52:07;10.30;99.90
33994;DHT22;20673;48.980;8.138;2024-02-15T03:54:36;10.20;99.90
33994;DHT22;20673;48.980;8.138;2024-02-15T03:57:03;10.30;99.90
33994;DHT22;20673;48.980;8.138;2024-02-15T03:59:29;10.30;99.90
33994;DHT22;20673;48.980;8.138;2024-02-15T04:01:57;10.30;99.90
33994;DHT22;20673;48.980;8.138;2024-02-15T04:04:23;10.20;99.90
33994;DHT22;20673;48.980;8.138;2024-02-15T04:06:50;10.30;99.90
33994;DHT22;20673;48.980;8.138;2024-02-15T04:09:17;10.30;99.90
33994;DHT22;20673;48.980;8.138;2024-02-15T04:11:47;10.20;99.90
33994;DHT22;20673;48.980;8.138;2024-02-15T04:14:16;10.30;99.90
33994;DHT22;20673;48.980;8.138;2024-02-15T04:16:44;10.20;99.90
33994;DHT22;20673;48.980;8.138;2024-02-15T04:19:11;10.20;99.90
33994;DHT22;20673;48.980;8.138;2024-02-15T04:21:37;10.20;99.90
33994;DHT22;20673;48.980;8.138;2024-02-15T04:24:04;10.10;99.90
33994;DHT22;20673;48.980;8.138;2024-02-15T04:26:31;10.00;99.90
33994;DHT22;20673;48.980;8.138;2024-02-15T04:28:59;10.00;99.90
33994;DHT22;20673;48.980;8.138;2024-02-15T04:31:25;9.90;99.90
33994;DHT22;20673;48.980;8.138;2024-02-15T04:33:55;9.90;99.90
33994;DHT22;20673;48.980;8.138;2024-02-15T04:36:21;9.90;99.90
33994;DHT22;20673;48.980;8.138;2024-02-15T04:38:51;9.90;99.90
33994;DHT22;20673;48.980;8.138;2024-02-15T04:41:18;9.80;99.90
33994;DHT22;20673;48.980;8.138;2024-02-15T04:43:49;9.90;99.90
33994;DHT22;20673;48.980;8.138;2024-02-15T04:46:15;9.90;99.90
33994;DHT22;20673;48.980;8.138;2024-02-15T04:48:42;9.80;99.90
33994;DHT22;20673;48.980;8.138;2024-02-15T04:51:09;9.80;99.90
33994;DHT22;20673;48.980;8.138;2024-02-15T04:53:36;9.90;99.90
33994;DHT22;20673;48.980;8.138;2024-02-15T04:56:05;9.80;99.90
33994;DHT22;20673;48.980;8.138;2024-02-15T04:58:40;9.80;99.90
33994;DHT22;20673;48.980;8.138;2024-02-15T05:01:14;9.80;99.90
33994;DHT22;20673;48.980;8.138;2024-02-15T05:03:44;9.80;99.90
33994;DHT22;20673;48.980;8.138;2024-02-15T05:06:11;9.70;99.90
33994;DHT22;20673;48.980;8.138;2024-02-15T05:08:39;9.70;99.90
33994;DHT22;20673;48.980;8.138;2024-02-15T05:11:10;9.60;99.90
33994;DHT22;20673;48.980;8.138;2024-02-15T05:13:41;9.60;99.90
33994;DHT22;20673;48.980;8.138;2024-02-15T05:16:08;9.70;99.90
33994;DHT22;20673;48.980;8.138;2024-02-15T05:18:34;9.60;99.90
33994;DHT22;20673;48.980;8.138;2024-02-15T05:21:01;9.60;99.90
33994;DHT22;20673;48.980;8.138;2024-02-15T05:23:29;9.60;99.90
33994;DHT22;20673;48.980;8.138;2024-02-15T05:25:55;9.60;99.90
33994;DHT22;20673;48.980;8.138;2024-02-15T05:28:22;9.70;99.90
33994;DHT22;20673;48.980;8.138;2024-02-15T05:30:50;9.70;99.90
33994;DHT22;20673;48.980;8.138;2024-02-15T05:33:16;9.70;99.90
33994;DHT22;20673;48.980;8.138;2024-02-15T05:35:42;9.70;99.90
33994;DHT22;20673;48.980;8.138;2024-02-15T05:38:10;9.80;99.90
33994;DHT22;20673;48.980;8.138;2024-02-15T05:40:38;9.80;99.90
33994;DHT22;20673;48.980;8.138;2024-02-15T05:43:04;9.90;99.90
33994;DHT22;20673;48.980;8.138;2024-02-15T05:45:32;9.90;99.90
33994;DHT22;20673;48.980;8.138;2024-02-15T05:47:59;9.90;99.90
33994;DHT22;20673;48.980;8.138;2024-02-15T05:50:26;9.90;99.90
33994;DHT22;20673;48.980;8.138;2024-02-15T05:52:54;9.90;99.90
33994;DHT22;20673;48.980;8.138;2024-02-15T05:55:20;9.80;99.90
33994;DHT22;20673;48.980;8.138;2024-02-15T05:57:46;9.70;99.90
33994;DHT22;20673;48.980;8.138;2024-02-15T06:00:13;9.70;99.90
33994;DHT22;20673;48.980;8.138;2024-02-15T06:02:41;9.70;99.90
33994;DHT22;20673;48.980;8.138;2024-02-15T06:05:07;9.60;99.90
33994;DHT22;20673;48.980;8.138;2024-02-15T06:07:35;9.60;99.90
33994;DHT22;20673;48.980;8.138;2024-02-15T06:10:02;9.60;99.90
33994;DHT22;20673;48.980;8.138;2024-02-15T06:12:29;9.60;99.90
33994;DHT22;20673;48.980;8.138;2024-02-15T06:14:56;9.50;99.90
33994;DHT22;20673;48.980;8.138;2024-02-15T06:17:22;9.40;99.90
33994;DHT22;20673;48.980;8.138;2024-02-15T06:19:48;9.30;99.90
33994;DHT22;20673;48.980;8.138;2024-02-15T06:22:14;9.20;99.90
33994;DHT22;20673;48.980;8.138;2024-02-15T06:24:40;9.10;99.90
33994;DHT22;20673;48.980;8.138;2024-02-15T06:27:07;9.00;99.90
33994;DHT22;20673;48.980;8.138;2024-02-15T06:29:33;9.00;99.90
33994;DHT22;20673;48.980;8.138;2024-02-15T06:32:17;8.90;99.90
33994;DHT22;20673;48.980;8.138;2024-02-15T06:35:02;8.90;99.90
33994;DHT22;20673;48.980;8.138;2024-02-15T06:37:47;8.80;99.90
33994;DHT22;20673;48.980;8.138;2024-02-15T06:40:31;8.80;99.90
33994;DHT22;20673;48.980;8.138;2024-02-15T06:42:58;8.80;99.90
33994;DHT22;20673;48.980;8.138;2024-02-15T06:45:24;8.70;99.90
33994;DHT22;20673;48.980;8.138;2024-02-15T06:47:51;8.60;99.90
33994;DHT22;20673;48.980;8.138;2024-02-15T06:50:17;8.50;99.90
33994;DHT22;20673;48.980;8.138;2024-02-15T06:52:44;8.50;99.90
33994;DHT22;20673;48.980;8.138;2024-02-15T06:55:11;8.40;99.90
33994;DHT22;20673;48.980;8.138;2024-02-15T06:57:39;8.40;99.90
33994;DHT22;20673;48.980;8.138;2024-02-15T07:00:10;8.40;99.90
33994;DHT22;20673;48.980;8.138;2024-02-15T07:02:38;8.50;99.90
33994;DHT22;20673;48.980;8.138;2024-02-15T07:05:05;8.50;99.90
33994;DHT22;20673;48.980;8.138;2024-02-15T07:07:31;8.50;99.90
33994;DHT22;20673;48.980;8.138;2024-02-15T07:09:58;8.40;99.90
33994;DHT22;20673;48.980;8.138;2024-02-15T07:12:24;8.40;99.90
33994;DHT22;20673;48.980;8.138;2024-02-15T07:14:50;8.40;99.90
33994;DHT22;20673;48.980;8.138;2024-02-15T07:17:16;8.40;99.90
33994;DHT22;20673;48.980;8.138;2024-02-15T07:19:43;8.40;99.90
33994;DHT22;20673;48.980;8.138;2024-02-15T07:22:10;8.40;99.90
33994;DHT22;20673;48.980;8.138;2024-02-15T07:24:37;8.40;99.90
33994;DHT22;20673;48.980;8.138;2024-02-15T07:27:06;8.40;99.90
33994;DHT22;20673;48.980;8.138;2024-02-15T07:29:32;8.50;99.90
33994;DHT22;20673;48.980;8.138;2024-02-15T07:32:03;8.40;99.90
33994;DHT22;20673;48.980;8.138;2024-02-15T07:34:33;8.50;99.90
33994;DHT22;20673;48.980;8.138;2024-02-15T07:37:02;8.60;99.90
33994;DHT22;20673;48.980;8.138;2024-02-15T07:39:29;8.60;99.90
33994;DHT22;20673;48.980;8.138;2024-02-15T07:41:55;8.70;99.90
33994;DHT22;20673;48.980;8.138;2024-02-15T07:44:22;8.70;99.90
33994;DHT22;20673;48.980;8.138;2024-02-15T07:46:48;8.70;99.90
33994;DHT22;20673;48.980;8.138;2024-02-15T07:49:16;8.60;99.90
33994;DHT22;20673;48.980;8.138;2024-02-15T07:51:43;8.60;99.90
33994;DHT22;20673;48.980;8.138;2024-02-15T07:54:10;8.60;99.90
33994;DHT22;20673;48.980;8.138;2024-02-15T07:56:37;8.50;99.90
33994;DHT22;20673;48.980;8.138;2024-02-15T07:59:06;8.50;99.90
33994;DHT22;20673;48.980;8.138;2024-02-15T08:01:32;8.50;99.90
33994;DHT22;20673;48.980;8.138;2024-02-15T08:03:59;8.50;99.90
33994;DHT22;20673;48.980;8.138;2024-02-15T08:06:25;8.60;99.90
33994;DHT22;20673;48.980;8.138;2024-02-15T08:08:53;8.60;99.90
33994;DHT22;20673;48.980;8.138;2024-02-15T08:11:19;8.70;99.90
33994;DHT22;20673;48.980;8.138;2024-02-15T08:13:52;8.80;99.90
33994;DHT22;20673;48.980;8.138;2024-02-15T08:16:21;8.90;99.90
33994;DHT22;20673;48.980;8.138;2024-02-15T08:18:49;9.10;99.90
33994;DHT22;20673;48.980;8.138;2024-02-15T08:21:18;9.30;99.90
33994;DHT22;20673;48.980;8.138;2024-02-15T08:23:46;9.50;99.90
33994;DHT22;20673;48.980;8.138;2024-02-15T08:26:12;9.70;99.90
33994;DHT22;20673;48.980;8.138;2024-02-15T08:28:39;10.00;99.90
33994;DHT22;20673;48.980;8.138;2024-02-15T08:31:05;10.20;99.90
33994;DHT22;20673;48.980;8.138;2024-02-15T08:33:33;10.40;99.90
33994;DHT22;20673;48.980;8.138;2024-02-15T08:35:59;10.60;99.90
33994;DHT22;20673;48.980;8.138;2024-02-15T08:38:27;10.80;99.90
33994;DHT22;20673;48.980;8.138;2024-02-15T08:40:53;11.10;99.90
33994;DHT22;20673;48.980;8.138;2024-02-15T08:43:19;11.30;99.90
33994;DHT22;20673;48.980;8.138;2024-02-15T08:45:45;11.50;99.90
33994;DHT22;20673;48.980;8.138;2024-02-15T08:48:11;11.60;99.90
33994;DHT22;20673;48.980;8.138;2024-02-15T08:50:38;11.80;99.90
33994;DHT22;20673;48.980;8.138;2024-02-15T08:53:07;12.00;99.90
33994;DHT22;20673;48.980;8.138;2024-02-15T08:55:33;12.10;99.90
33994;DHT22;20673;48.980;8.138;2024-02-15T08:58:01;12.20;99.90
33994;DHT22;20673;48.980;8.138;2024-02-15T09:00:28;12.40;99.90
33994;DHT22;20673;48.980;8.138;2024-02-15T09:02:54;12.50;99.90
33994;DHT22;20673;48.980;8.138;2024-02-15T09:05:22;12.60;99.90
33994;DHT22;20673;48.980;8.138;2024-02-15T09:07:50;12.70;99.90
33994;DHT22;20673;48.980;8.138;2024-02-15T09:10:17;12.90;99.90
33994;DHT22;20673;48.980;8.138;2024-02-15T09:12:44;13.10;99.90
33994;DHT22;20673;48.980;8.138;2024-02-15T09:15:13;13.30;99.90
33994;DHT22;20673;48.980;8.138;2024-02-15T09:17:42;13.50;32.60
33994;DHT22;20673;48.980;8.138;2024-02-15T09:20:10;13.80;17.70
33994;DHT22;20673;48.980;8.138;2024-02-15T09:22:51;14.10;25.70
33994;DHT22;20673;48.980;8.138;2024-02-15T09:25:21;14.40;16.50
33994;DHT22;20673;48.980;8.138;2024-02-15T09:27:49;14.60;1.00
33994;DHT22;20673;48.980;8.138;2024-02-15T09:30:16;14.80;1.00
33994;DHT22;20673;48.980;8.138;2024-02-15T09:32:43;15.10;1.00
33994;DHT22;20673;48.980;8.138;2024-02-15T09:35:11;15.40;1.00
33994;DHT22;20673;48.980;8.138;2024-02-15T09:37:44;15.40;1.00
33994;DHT22;20673;48.980;8.138;2024-02-15T09:40:15;15.50;1.00
33994;DHT22;20673;48.980;8.138;2024-02-15T09:42:44;15.60;1.00
33994;DHT22;20673;48.980;8.138;2024-02-15T09:45:12;15.50;1.00
33994;DHT22;20673;48.980;8.138;2024-02-15T09:47:41;15.70;1.00
33994;DHT22;20673;48.980;8.138;2024-02-15T09:50:17;15.60;1.00
33994;DHT22;20673;48.980;8.138;2024-02-15T09:55:18;15.40;1.00
33994;DHT22;20673;48.980;8.138;2024-02-15T09:57:55;15.70;1.00
33994;DHT22;20673;48.980;8.138;2024-02-15T10:00:26;16.10;1.00
33994;DHT22;20673;48.980;8.138;2024-02-15T10:02:53;16.60;1.00
33994;DHT22;20673;48.980;8.138;2024-02-15T10:05:20;16.50;1.00
33994;DHT22;20673;48.980;8.138;2024-02-15T10:07:48;16.60;1.00
33994;DHT22;20673;48.980;8.138;2024-02-15T10:10:17;16.50;1.00
33994;DHT22;20673;48.980;8.138;2024-02-15T10:12:50;16.50;1.00
33994;DHT22;20673;48.980;8.138;2024-02-15T10:15:33;16.40;1.00
33994;DHT22;20673;48.980;8.138;2024-02-15T10:18:07;16.30;1.00
33994;DHT22;20673;48.980;8.138;2024-02-15T10:20:36;16.40;1.00
33994;DHT22;20673;48.980;8.138;2024-02-15T10:23:10;16.50;1.00
33994;DHT22;20673;48.980;8.138;2024-02-15T10:25:39;16.40;1.00
33994;DHT22;20673;48.980;8.138;2024-02-15T10:28:09;16.40;1.00
33994;DHT22;20673;48.980;8.138;2024-02-15T10:30:38;16.50;1.00
33994;DHT22;20673;48.980;8.138;2024-02-15T10:33:06;16.60;1.00
33994;DHT22;20673;48.980;8.138;2024-02-15T10:35:35;16.70;1.00
33994;DHT22;20673;48.980;8.138;2024-02-15T10:38:09;16.80;1.00
33994;DHT22;20673;48.980;8.138;2024-02-15T10:40:40;16.90;1.00
33994;DHT22;20673;48.980;8.138;2024-02-15T10:43:09;17.30;1.00
33994;DHT22;20673;48.980;8.138;2024-02-15T10:45:38;17.20;1.00
33994;DHT22;20673;48.980;8.138;2024-02-15T10:48:10;17.20;1.00
33994;DHT22;20673;48.980;8.138;2024-02-15T10:50:42;17.10;1.00
33994;DHT22;20673;48.980;8.138;2024-02-15T10:55:56;17.30;1.00
33994;DHT22;20673;48.980;8.138;2024-02-15T10:58:46;17.10;1.00
33994;DHT22;20673;48.980;8.138;2024-02-15T11:01:17;16.90;1.00
33994;DHT22;20673;48.980;8.138;2024-02-15T11:03:56;16.70;1.00
33994;DHT22;20673;48.980;8.138;2024-02-15T11:06:26;16.70;1.00
33994;DHT22;20673;48.980;8.138;2024-02-15T11:08:53;16.80;1.00
33994;DHT22;20673;48.980;8.138;2024-02-15T11:11:20;16.70;1.00
33994;DHT22;20673;48.980;8.138;2024-02-15T11:13:47;16.40;1.00
33994;DHT22;20673;48.980;8.138;2024-02-15T11:19:02;16.70;1.00
33994;DHT22;20673;48.980;8.138;2024-02-15T11:21:53;16.80;1.00
33994;DHT22;20673;48.980;8.138;2024-02-15T11:24:27;16.90;1.00
33994;DHT22;20673;48.980;8.138;2024-02-15T11:27:05;17.30;1.00
33994;DHT22;20673;48.980;8.138;2024-02-15T11:29:55;17.30;1.00
33994;DHT22;20673;48.980;8.138;2024-02-15T11:32:40;17.80;1.00
33994;DHT22;20673;48.980;8.138;2024-02-15T11:35:13;17.70;1.00
33994;DHT22;20673;48.980;8.138;2024-02-15T11:37:53;17.60;1.00
33994;DHT22;20673;48.980;8.138;2024-02-15T11:46:15;18.80;99.90
33994;DHT22;20673;48.980;8.138;2024-02-15T11:48:45;18.70;99.90
33994;DHT22;20673;48.980;8.138;2024-02-15T11:54:09;18.50;99.90
33994;DHT22;20673;48.980;8.138;2024-02-15T11:56:50;18.80;99.90
33994;DHT22;20673;48.980;8.138;2024-02-15T11:59:19;19.00;99.90
33994;DHT22;20673;48.980;8.138;2024-02-15T12:01:56;19.00;99.90
33994;DHT22;20673;48.980;8.138;2024-02-15T12:04:42;18.80;35.60
33994;DHT22;20673;48.980;8.138;2024-02-15T12:07:28;18.60;41.60
33994;DHT22;20673;48.980;8.138;2024-02-15T12:10:18;18.50;99.90
33994;DHT22;20673;48.980;8.138;2024-02-15T12:13:03;18.40;50.90
33994;DHT22;20673;48.980;8.138;2024-02-15T12:15:57;18.00;99.90
33994;DHT22;20673;48.980;8.138;2024-02-15T12:18:43;18.00;98.80
33994;DHT22;20673;48.980;8.138;2024-02-15T12:21:14;17.90;99.90
33994;DHT22;20673;48.980;8.138;2024-02-15T12:23:43;17.80;99.90
33994;DHT22;20673;48.980;8.138;2024-02-15T12:26:11;17.70;89.00
33994;DHT22;20673;48.980;8.138;2024-02-15T12:28:42;17.60;10.30
33994;DHT22;20673;48.980;8.138;2024-02-15T12:31:14;17.60;30.00
33994;DHT22;20673;48.980;8.138;2024-02-15T12:33:43;17.30;99.90
33994;DHT22;20673;48.980;8.138;2024-02-15T12:36:13;17.50;99.90
33994;DHT22;20673;48.980;8.138;2024-02-15T12:38:58;17.60;99.90
33994;DHT22;20673;48.980;8.138;2024-02-15T12:41:23;17.50;99.90
33994;DHT22;20673;48.980;8.138;2024-02-15T12:43:54;17.60;99.90
33994;DHT22;20673;48.980;8.138;2024-02-15T12:46:31;17.50;1.60
33994;DHT22;20673;48.980;8.138;2024-02-15T12:51:53;17.30;99.90
33994;DHT22;20673;48.980;8.138;2024-02-15T12:54:24;17.10;99.90
33994;DHT22;20673;48.980;8.138;2024-02-15T12:57:09;17.10;99.90
33994;DHT22;20673;48.980;8.138;2024-02-15T12:59:36;17.00;99.90
33994;DHT22;20673;48.980;8.138;2024-02-15T13:02:02;16.90;99.90
33994;DHT22;20673;48.980;8.138;2024-02-15T13:04:29;16.90;99.90
33994;DHT22;20673;48.980;8.138;2024-02-15T13:06:55;16.90;99.90
33994;DHT22;20673;48.980;8.138;2024-02-15T13:09:22;16.90;99.90
33994;DHT22;20673;48.980;8.138;2024-02-15T13:11:48;17.00;99.90
33994;DHT22;20673;48.980;8.138;2024-02-15T13:14:16;17.10;99.90
33994;DHT22;20673;48.980;8.138;2024-02-15T13:16:42;17.30;99.90
33994;DHT22;20673;48.980;8.138;2024-02-15T13:19:10;17.40;99.90
33994;DHT22;20673;48.980;8.138;2024-02-15T13:21:36;17.40;83.70
33994;DHT22;20673;48.980;8.138;2024-02-15T13:24:02;17.40;16.60
33994;DHT22;20673;48.980;8.138;2024-02-15T13:26:31;17.50;1.00
33994;DHT22;20673;48.980;8.138;2024-02-15T13:28:59;17.60;1.00
33994;DHT22;20673;48.980;8.138;2024-02-15T13:31:25;17.70;90.20
33994;DHT22;20673;48.980;8.138;2024-02-15T13:33:53;17.90;29.00
33994;DHT22;20673;48.980;8.138;2024-02-15T13:36:19;18.10;1.00
33994;DHT22;20673;48.980;8.138;2024-02-15T13:38:46;18.10;1.00
33994;DHT22;20673;48.980;8.138;2024-02-15T13:41:12;18.20;1.00
33994;DHT22;20673;48.980;8.138;2024-02-15T13:43:38;18.20;1.00
33994;DHT22;20673;48.980;8.138;2024-02-15T13:46:07;18.20;1.00
33994;DHT22;20673;48.980;8.138;2024-02-15T13:48:33;18.00;1.00
33994;DHT22;20673;48.980;8.138;2024-02-15T13:50:59;18.00;39.90
33994;DHT22;20673;48.980;8.138;2024-02-15T13:53:25;18.10;1.00
33994;DHT22;20673;48.980;8.138;2024-02-15T13:55:53;18.10;1.00
33994;DHT22;20673;48.980;8.138;2024-02-15T13:58:19;18.10;1.00
33994;DHT22;20673;48.980;8.138;2024-02-15T14:00:46;18.20;1.00
33994;DHT22;20673;48.980;8.138;2024-02-15T14:03:14;18.10;1.00
33994;DHT22;20673;48.980;8.138;2024-02-15T14:05:41;18.10;1.00
33994;DHT22;20673;48.980;8.138;2024-02-15T14:08:08;18.20;1.00
33994;DHT22;20673;48.980;8.138;2024-02-15T14:10:35;18.20;1.00
33994;DHT22;20673;48.980;8.138;2024-02-15T14:13:03;18.10;1.00
33994;DHT22;20673;48.980;8.138;2024-02-15T14:15:37;17.90;1.00
33994;DHT22;20673;48.980;8.138;2024-02-15T14:18:11;17.90;1.00
33994;DHT22;20673;48.980;8.138;2024-02-15T14:20:42;17.90;1.00
33994;DHT22;20673;48.980;8.138;2024-02-15T14:23:08;17.90;1.00
33994;DHT22;20673;48.980;8.138;2024-02-15T14:25:36;17.80;1.00
33994;DHT22;20673;48.980;8.138;2024-02-15T14:28:03;17.60;99.90
33994;DHT22;20673;48.980;8.138;2024-02-15T14:30:30;17.40;99.90
33994;DHT22;20673;48.980;8.138;2024-02-15T14:33:15;17.40;99.90
33994;DHT22;20673;48.980;8.138;2024-02-15T14:35:41;17.30;99.90
33994;DHT22;20673;48.980;8.138;2024-02-15T14:38:10;17.30;99.90
33994;DHT22;20673;48.980;8.138;2024-02-15T14:40:40;17.20;99.90
33994;DHT22;20673;48.980;8.138;2024-02-15T14:43:13;17.20;99.90
33994;DHT22;20673;48.980;8.138;2024-02-15T14:45:41;17.20;99.90
33994;DHT22;20673;48.980;8.138;2024-02-15T14:48:07;17.30;99.90
33994;DHT22;20673;48.980;8.138;2024-02-15T14:50:42;17.10;99.90
33994;DHT22;20673;48.980;8.138;2024-02-15T14:53:08;17.10;99.90
33994;DHT22;20673;48.980;8.138;2024-02-15T14:55:35;17.00;1.00
33994;DHT22;20673;48.980;8.138;2024-02-15T14:58:04;17.00;99.90
33994;DHT22;20673;48.980;8.138;2024-02-15T15:00:34;17.00;1.00
33994;DHT22;20673;48.980;8.138;2024-02-15T15:03:00;17.00;1.00
33994;DHT22;20673;48.980;8.138;2024-02-15T15:05:28;17.00;1.00
33994;DHT22;20673;48.980;8.138;2024-02-15T15:08:12;16.90;1.00
33994;DHT22;20673;48.980;8.138;2024-02-15T15:10:57;16.70;1.00
33994;DHT22;20673;48.980;8.138;2024-02-15T15:13:41;16.70;1.00
33994;DHT22;20673;48.980;8.138;2024-02-15T15:16:07;16.70;1.00
33994;DHT22;20673;48.980;8.138;2024-02-15T15:18:35;16.70;1.00
33994;DHT22;20673;48.980;8.138;2024-02-15T15:21:01;16.60;1.00
33994;DHT22;20673;48.980;8.138;2024-02-15T15:23:27;16.60;1.00
33994;DHT22;20673;48.980;8.138;2024-02-15T15:26:02;16.40;1.00
33994;DHT22;20673;48.980;8.138;2024-02-15T15:28:28;16.40;1.00
33994;DHT22;20673;48.980;8.138;2024-02-15T15:30:54;16.40;1.00
33994;DHT22;20673;48.980;8.138;2024-02-15T15:33:22;16.30;1.00
33994;DHT22;20673;48.980;8.138;2024-02-15T15:35:49;16.20;1.00
33994;DHT22;20673;48.980;8.138;2024-02-15T15:38:15;16.10;1.00
33994;DHT22;20673;48.980;8.138;2024-02-15T15:40:42;16.10;1.00
33994;DHT22;20673;48.980;8.138;2024-02-15T15:43:08;16.00;1.00
33994;DHT22;20673;48.980;8.138;2024-02-15T15:45:36;15.90;1.00
33994;DHT22;20673;48.980;8.138;2024-02-15T15:48:03;15.80;1.00
33994;DHT22;20673;48.980;8.138;2024-02-15T15:50:30;15.70;1.00
33994;DHT22;20673;48.980;8.138;2024-02-15T15:53:06;15.60;1.00
33994;DHT22;20673;48.980;8.138;2024-02-15T15:55:31;15.50;1.00
33994;DHT22;20673;48.980;8.138;2024-02-15T15:57:58;15.40;1.00
33994;DHT22;20673;48.980;8.138;2024-02-15T16:00:24;15.30;1.00
33994;DHT22;20673;48.980;8.138;2024-02-15T16:02:51;15.20;1.00
33994;DHT22;20673;48.980;8.138;2024-02-15T16:05:18;15.20;1.00
33994;DHT22;20673;48.980;8.138;2024-02-15T16:07:45;15.10;1.00
33994;DHT22;20673;48.980;8.138;2024-02-15T16:10:12;15.10;1.00
33994;DHT22;20673;48.980;8.138;2024-02-15T16:12:41;15.10;1.00